createdAt,value
2022-08-14T00:00:12.273Z,24.29
2022-08-14T00:03:06.318Z,24.34
2022-08-14T00:05:39.350Z,24.30
2022-08-14T00:08:16.882Z,24.21
2022-08-14T00:11:09.453Z,24.10
2022-08-14T00:13:43.240Z,24.05
2022-08-14T00:16:41.090Z,24.19
2022-08-14T00:19:19.258Z,24.13
2022-08-14T00:21:52.878Z,24.09
2022-08-14T00:24:29.172Z,24.04
2022-08-14T00:27:02.963Z,24.06
2022-08-14T00:29:40.438Z,24.08
2022-08-14T00:32:52.369Z,24.10
2022-08-14T00:35:09.252Z,24.12
2022-08-14T00:37:46.286Z,24.06
2022-08-14T00:40:33.027Z,23.97
2022-08-14T00:43:08.172Z,23.99
2022-08-14T00:45:41.288Z,24.02
2022-08-14T00:48:13.544Z,24.01
2022-08-14T00:51:09.000Z,23.96
2022-08-14T00:53:42.997Z,23.90
2022-08-14T00:56:15.523Z,23.88
2022-08-14T00:58:48.546Z,23.86
2022-08-14T01:01:21.114Z,23.83
2022-08-14T01:03:55.845Z,23.82
2022-08-14T01:06:30.175Z,23.78
2022-08-14T01:09:07.044Z,23.80
2022-08-14T01:11:41.477Z,23.71
2022-08-14T01:14:25.525Z,23.84
2022-08-14T01:17:00.869Z,23.74
2022-08-14T01:19:53.832Z,23.84
2022-08-14T01:22:27.163Z,23.85
2022-08-14T01:25:01.914Z,23.86
2022-08-14T01:27:53.440Z,23.83
2022-08-14T01:30:35.413Z,23.68
2022-08-14T01:33:12.960Z,23.63
2022-08-14T01:36:03.310Z,23.62
2022-08-14T01:38:40.235Z,23.78
2022-08-14T01:41:19.859Z,23.81
2022-08-14T01:44:01.000Z,23.71
2022-08-14T01:46:36.953Z,23.69
2022-08-14T01:49:16.607Z,23.59
2022-08-14T01:51:54.373Z,23.54
2022-08-14T01:54:38.305Z,23.47
2022-08-14T01:57:11.686Z,23.46
2022-08-14T01:59:45.166Z,23.40
2022-08-14T02:02:19.796Z,23.29
2022-08-14T02:04:56.811Z,23.36
2022-08-14T02:07:44.925Z,23.34
2022-08-14T02:10:29.082Z,23.34
2022-08-14T02:13:05.660Z,23.33
2022-08-14T02:15:41.439Z,23.32
2022-08-14T02:18:16.613Z,23.29
2022-08-14T02:20:51.368Z,23.34
2022-08-14T02:23:30.536Z,23.41
2022-08-14T02:26:24.418Z,23.44
2022-08-14T02:29:00.773Z,23.31
2022-08-14T02:31:43.488Z,23.34
2022-08-14T02:34:22.090Z,23.30
2022-08-14T02:37:06.385Z,23.26
2022-08-14T02:39:41.910Z,23.21
2022-08-14T02:42:16.208Z,23.17
2022-08-14T02:44:55.665Z,23.13
2022-08-14T02:47:28.526Z,23.09
2022-08-14T02:50:01.254Z,23.04
2022-08-14T02:52:56.091Z,22.98
2022-08-14T02:55:27.775Z,22.93
2022-08-14T02:58:03.662Z,22.92
2022-08-14T03:00:40.133Z,22.90
2022-08-14T03:03:13.559Z,22.88
2022-08-14T03:05:51.481Z,22.82
2022-08-14T03:08:33.363Z,22.80
2022-08-14T03:11:09.442Z,22.76
2022-08-14T03:13:44.256Z,22.72
2022-08-14T03:16:20.152Z,22.70
2022-08-14T03:19:00.701Z,22.66
2022-08-14T03:21:33.410Z,22.61
2022-08-14T03:24:21.702Z,22.56
2022-08-14T03:26:57.584Z,22.48
2022-08-14T03:29:30.506Z,22.66
2022-08-14T03:32:03.543Z,22.70
2022-08-14T03:34:52.571Z,22.80
2022-08-14T03:37:37.816Z,22.80
2022-08-14T03:40:19.855Z,22.84
2022-08-14T03:42:52.203Z,22.89
2022-08-14T03:45:35.034Z,22.92
2022-08-14T03:48:30.323Z,22.95
2022-08-14T03:51:04.193Z,22.95
2022-08-14T03:53:42.167Z,22.89
2022-08-14T03:56:18.024Z,22.84
2022-08-14T03:58:55.766Z,22.78
2022-08-14T04:01:39.208Z,22.73
2022-08-14T04:04:18.067Z,22.67
2022-08-14T04:06:51.800Z,22.64
2022-08-14T04:09:26.663Z,22.60
2022-08-14T04:12:00.063Z,22.56
2022-08-14T04:14:37.299Z,22.49
2022-08-14T04:17:11.358Z,22.49
2022-08-14T04:19:46.372Z,22.45
2022-08-14T04:22:21.985Z,22.44
2022-08-14T04:24:54.784Z,22.42
2022-08-14T04:27:28.381Z,22.41
2022-08-14T04:30:02.849Z,22.39
2022-08-14T04:33:02.735Z,22.37
2022-08-14T04:35:50.727Z,22.30
2022-08-14T04:38:41.959Z,22.33
2022-08-14T04:41:31.766Z,22.33
2022-08-14T04:44:05.013Z,22.34
2022-08-14T04:46:56.638Z,22.35
2022-08-14T04:49:30.358Z,22.35
2022-08-14T04:52:15.245Z,22.23
2022-08-14T04:54:51.056Z,22.38
2022-08-14T04:57:23.091Z,22.40
2022-08-14T04:59:55.335Z,22.43
2022-08-14T05:02:28.542Z,22.44
2022-08-14T05:05:01.286Z,22.48
2022-08-14T05:07:46.257Z,22.52
2022-08-14T05:10:32.158Z,22.55
2022-08-14T05:13:12.938Z,22.62
2022-08-14T05:15:48.988Z,22.57
2022-08-14T05:18:52.918Z,22.70
2022-08-14T05:22:00.484Z,22.72
2022-08-14T05:24:17.783Z,22.78
2022-08-14T05:26:51.044Z,22.85
2022-08-14T05:29:23.906Z,22.90
2022-08-14T05:31:58.251Z,22.96
2022-08-14T05:34:31.946Z,22.99
2022-08-14T05:37:06.841Z,23.04
2022-08-14T05:39:40.892Z,23.09
2022-08-14T05:42:22.032Z,23.12
2022-08-14T05:44:59.582Z,23.17
2022-08-14T05:47:39.082Z,23.21
2022-08-14T05:50:17.238Z,23.28
2022-08-14T05:52:53.092Z,23.33
2022-08-14T05:55:26.844Z,23.39
2022-08-14T05:58:03.321Z,23.45
2022-08-14T06:00:39.782Z,23.50
2022-08-14T06:03:14.924Z,23.55
2022-08-14T06:05:48.567Z,23.59
2022-08-14T06:08:41.036Z,23.65
2022-08-14T06:11:20.051Z,23.71
2022-08-14T06:13:56.632Z,23.76
2022-08-14T06:16:29.022Z,23.83
2022-08-14T06:19:06.671Z,23.81
2022-08-14T06:21:43.607Z,23.77
2022-08-14T06:24:18.317Z,23.87
2022-08-14T06:26:56.930Z,23.91
2022-08-14T06:29:38.010Z,23.95
2022-08-14T06:32:38.664Z,23.98
2022-08-14T06:35:12.160Z,24.01
2022-08-14T06:37:48.915Z,24.06
2022-08-14T06:40:27.786Z,24.09
2022-08-14T06:43:03.402Z,24.12
2022-08-14T06:45:38.742Z,24.15
2022-08-14T06:48:18.009Z,24.19
2022-08-14T06:50:55.042Z,24.23
2022-08-14T06:53:27.649Z,24.27
2022-08-14T06:56:02.435Z,24.30
2022-08-14T06:58:35.808Z,24.23
2022-08-14T07:01:27.596Z,24.36
2022-08-14T07:04:23.853Z,24.42
2022-08-14T07:06:59.135Z,24.46
2022-08-14T07:09:43.897Z,24.48
2022-08-14T07:12:54.186Z,24.52
2022-08-14T07:15:16.277Z,24.56
2022-08-14T07:17:54.045Z,24.60
2022-08-14T07:20:30.595Z,24.62
2022-08-14T07:23:09.281Z,24.68
2022-08-14T07:25:53.540Z,24.73
2022-08-14T07:28:28.030Z,24.80
2022-08-14T07:31:05.073Z,24.83
2022-08-14T07:33:41.937Z,24.76
2022-08-14T07:36:27.651Z,24.85
2022-08-14T07:39:12.214Z,24.90
2022-08-14T07:41:45.449Z,24.95
2022-08-14T07:44:32.162Z,25.01
2022-08-14T07:47:07.897Z,25.06
2022-08-14T07:49:41.252Z,24.91
2022-08-14T07:52:15.541Z,25.13
2022-08-14T07:54:54.842Z,25.16
2022-08-14T07:57:28.270Z,25.18
2022-08-14T08:00:01.415Z,25.21
2022-08-14T08:02:46.339Z,25.26
2022-08-14T08:05:20.331Z,25.28
2022-08-14T08:07:54.702Z,25.36
2022-08-14T08:11:01.675Z,25.38
2022-08-14T08:13:28.638Z,25.45
2022-08-14T08:16:03.477Z,25.57
2022-08-14T08:18:36.302Z,25.59
2022-08-14T08:21:09.484Z,25.72
2022-08-14T08:23:51.382Z,25.90
2022-08-14T08:26:29.780Z,25.96
2022-08-14T08:29:02.179Z,26.05
2022-08-14T08:31:36.639Z,26.12
2022-08-14T08:34:14.269Z,26.25
2022-08-14T08:36:50.689Z,26.30
2022-08-14T08:39:23.258Z,26.27
2022-08-14T08:41:55.857Z,26.42
2022-08-14T08:44:34.371Z,26.48
2022-08-14T08:47:08.123Z,26.54
2022-08-14T08:49:52.591Z,26.56
2022-08-14T08:52:32.355Z,26.55
2022-08-14T08:55:05.267Z,26.57
2022-08-14T08:57:38.980Z,26.63
2022-08-14T09:00:24.979Z,26.65
2022-08-14T09:03:03.311Z,26.70
2022-08-14T09:05:38.467Z,26.78
2022-08-14T09:08:26.561Z,26.94
2022-08-14T09:11:19.000Z,27.02
2022-08-14T09:13:54.985Z,27.20
2022-08-14T09:16:27.805Z,27.31
2022-08-14T09:19:00.495Z,27.44
2022-08-14T09:21:34.794Z,27.59
2022-08-14T09:24:28.588Z,27.72
2022-08-14T09:27:00.982Z,27.84
2022-08-14T09:29:33.256Z,27.91
2022-08-14T09:32:10.127Z,28.05
2022-08-14T09:35:14.219Z,28.21
2022-08-14T09:37:56.403Z,28.35
2022-08-14T09:40:40.767Z,28.48
2022-08-14T09:43:26.087Z,28.46
2022-08-14T09:46:01.097Z,28.41
2022-08-14T09:48:35.504Z,28.44
2022-08-14T09:51:25.485Z,28.49
2022-08-14T09:54:17.692Z,28.68
2022-08-14T09:56:57.224Z,29.01
2022-08-14T09:59:50.442Z,29.13
2022-08-14T10:02:25.274Z,29.20
2022-08-14T10:05:08.694Z,29.26
2022-08-14T10:07:53.873Z,29.23
2022-08-14T10:10:34.998Z,29.19
2022-08-14T10:13:21.395Z,29.15
2022-08-14T10:16:01.726Z,29.11
2022-08-14T10:18:34.801Z,29.10
2022-08-14T10:21:09.839Z,29.08
2022-08-14T10:23:49.891Z,29.06
2022-08-14T10:26:28.181Z,29.04
2022-08-14T10:29:19.291Z,29.11
2022-08-14T10:32:00.989Z,29.15
2022-08-14T10:34:40.854Z,29.27
2022-08-14T10:37:16.933Z,29.50
2022-08-14T10:40:10.584Z,29.48
2022-08-14T10:42:47.251Z,29.48
2022-08-14T10:45:25.709Z,29.50
2022-08-14T10:48:08.081Z,29.49
2022-08-14T10:50:50.481Z,29.31
2022-08-14T10:53:39.903Z,29.39
2022-08-14T10:56:21.529Z,29.30
2022-08-14T10:59:08.828Z,29.28
2022-08-14T11:01:43.134Z,29.25
2022-08-14T11:04:30.833Z,29.24
2022-08-14T11:07:05.875Z,29.23
2022-08-14T11:09:41.765Z,29.16
2022-08-14T11:12:39.982Z,29.15
2022-08-14T11:15:07.776Z,29.13
2022-08-14T11:17:40.339Z,29.11
2022-08-14T11:20:20.351Z,29.07
2022-08-14T11:22:58.943Z,29.07
2022-08-14T11:25:36.846Z,28.98
2022-08-14T11:28:19.178Z,28.88
2022-08-14T11:30:54.621Z,28.81
2022-08-14T11:33:31.196Z,28.76
2022-08-14T11:36:18.064Z,28.80
2022-08-14T11:38:51.503Z,29.04
2022-08-14T11:41:27.281Z,29.19
2022-08-14T11:43:59.907Z,29.60
2022-08-14T11:46:37.715Z,29.88
2022-08-14T11:49:12.352Z,29.86
2022-08-14T11:51:55.751Z,29.81
2022-08-14T11:54:35.566Z,29.74
2022-08-14T11:57:14.553Z,30.05
2022-08-14T12:00:01.364Z,30.36
2022-08-14T12:03:02.555Z,30.54
2022-08-14T12:05:40.238Z,30.28
2022-08-14T12:08:13.481Z,30.13
2022-08-14T12:10:46.685Z,30.01
2022-08-14T12:13:22.362Z,29.88
2022-08-14T12:16:06.398Z,29.84
2022-08-14T12:18:45.549Z,30.10
2022-08-14T12:21:19.435Z,30.12
2022-08-14T12:24:04.239Z,30.48
2022-08-14T12:26:40.499Z,30.47
2022-08-14T12:29:16.955Z,30.27
2022-08-14T12:32:12.579Z,30.04
2022-08-14T12:34:53.739Z,29.96
2022-08-14T12:37:33.483Z,29.79
2022-08-14T12:40:20.798Z,29.55
2022-08-14T12:42:56.685Z,29.18
2022-08-14T12:45:35.402Z,28.91
2022-08-14T12:48:21.160Z,28.72
2022-08-14T12:51:00.546Z,28.65
2022-08-14T12:53:39.165Z,28.54
2022-08-14T12:56:22.486Z,28.47
2022-08-14T12:59:06.069Z,28.78
2022-08-14T13:02:00.026Z,28.88
2022-08-14T13:04:35.415Z,29.14
2022-08-14T13:07:08.577Z,29.48
2022-08-14T13:09:41.110Z,29.73
2022-08-14T13:12:33.367Z,29.87
2022-08-14T13:15:09.576Z,29.68
2022-08-14T13:18:29.870Z,29.68
2022-08-14T13:25:55.967Z,29.58
2022-08-14T13:28:32.978Z,29.46
2022-08-14T13:31:11.802Z,29.36
2022-08-14T13:33:43.987Z,29.15
2022-08-14T13:36:24.030Z,29.04
2022-08-14T13:39:16.531Z,29.01
2022-08-14T13:46:00.317Z,29.23
2022-08-14T13:52:51.652Z,29.12
2022-08-14T13:56:14.466Z,29.15
2022-08-14T13:59:20.523Z,29.08
2022-08-14T14:02:13.852Z,29.06
2022-08-14T14:05:07.634Z,29.01
2022-08-14T14:07:48.540Z,28.95
2022-08-14T14:10:28.721Z,28.92
2022-08-14T14:13:02.921Z,28.90
2022-08-14T14:15:48.580Z,28.96
2022-08-14T14:18:34.686Z,29.12
2022-08-14T14:21:19.412Z,29.19
2022-08-14T14:23:55.575Z,29.30
2022-08-14T14:26:55.439Z,29.31
2022-08-14T14:29:37.512Z,29.29
2022-08-14T14:32:21.598Z,29.24
2022-08-14T14:34:56.530Z,29.22
2022-08-14T14:37:31.175Z,29.19
2022-08-14T14:40:53.055Z,29.15
2022-08-14T14:43:05.508Z,29.13
2022-08-14T14:45:41.428Z,29.25
2022-08-14T14:48:16.715Z,29.22
2022-08-14T14:53:52.543Z,29.01
2022-08-14T14:56:49.750Z,28.99
2022-08-14T14:59:21.872Z,28.91
2022-08-14T15:02:07.825Z,28.88
2022-08-14T15:04:46.434Z,28.89
2022-08-14T15:07:20.219Z,28.84
2022-08-14T15:09:54.488Z,28.89
2022-08-14T15:12:55.198Z,28.89
2022-08-14T15:15:22.885Z,28.84
2022-08-14T15:17:55.337Z,28.85
2022-08-14T15:20:30.613Z,28.86
2022-08-14T15:23:43.669Z,28.83
2022-08-14T15:26:24.189Z,28.82
2022-08-14T15:30:23.749Z,28.77
2022-08-14T15:34:43.498Z,28.86
2022-08-14T15:38:00.681Z,28.86
2022-08-14T15:40:41.390Z,28.97
2022-08-14T15:43:14.757Z,29.03
2022-08-14T15:45:48.565Z,29.12
2022-08-14T15:48:22.326Z,29.15
2022-08-14T15:50:54.846Z,29.18
2022-08-14T15:53:31.573Z,29.20
2022-08-14T15:56:06.168Z,29.23
2022-08-14T15:58:41.992Z,29.16
2022-08-14T16:01:43.570Z,29.12
2022-08-14T16:04:17.457Z,29.06
2022-08-14T16:06:54.570Z,28.99
2022-08-14T16:09:27.605Z,28.95
2022-08-14T16:12:00.490Z,28.87
2022-08-14T16:14:34.338Z,28.84
2022-08-14T16:17:08.171Z,28.80
2022-08-14T16:19:47.771Z,28.78
2022-08-14T16:22:58.693Z,28.61
2022-08-14T16:25:18.237Z,28.71
2022-08-14T16:27:51.799Z,28.69
2022-08-14T16:30:27.860Z,28.73
2022-08-14T16:33:02.083Z,28.66
2022-08-14T16:35:42.740Z,28.62
2022-08-14T16:38:46.320Z,28.63
2022-08-14T16:41:30.022Z,28.58
2022-08-14T16:44:05.580Z,28.57
2022-08-14T16:46:47.910Z,28.56
2022-08-14T16:49:20.722Z,28.56
2022-08-14T16:51:55.524Z,28.54
2022-08-14T16:54:35.043Z,28.56
2022-08-14T16:57:22.566Z,28.50
2022-08-14T16:59:57.709Z,28.48
2022-08-14T17:02:39.865Z,28.49
2022-08-14T17:05:24.895Z,28.49
2022-08-14T17:08:33.474Z,28.51
2022-08-14T17:11:10.848Z,28.50
2022-08-14T17:14:00.433Z,28.54
2022-08-14T17:16:37.104Z,28.54
2022-08-14T17:19:14.183Z,28.55
2022-08-14T17:21:52.351Z,28.52
2022-08-14T17:24:57.089Z,28.50
2022-08-14T17:27:18.577Z,28.51
2022-08-14T17:29:57.690Z,28.48
2022-08-14T17:32:57.599Z,28.46
2022-08-14T17:35:58.159Z,28.40
2022-08-14T17:38:33.596Z,28.37
2022-08-14T17:41:27.085Z,28.31
2022-08-14T17:44:22.044Z,28.15
2022-08-14T17:47:10.133Z,28.20
2022-08-14T17:49:51.721Z,28.14
2022-08-14T17:52:35.894Z,28.12
2022-08-14T17:56:00.891Z,28.09
2022-08-14T17:58:16.553Z,28.05
2022-08-14T18:00:57.439Z,28.00
2022-08-14T18:03:50.870Z,28.00
2022-08-14T18:06:38.279Z,27.96
2022-08-14T18:09:25.337Z,27.94
2022-08-14T18:12:03.820Z,27.91
2022-08-14T18:14:48.822Z,27.76
2022-08-14T18:17:24.798Z,27.85
2022-08-14T18:20:01.393Z,27.81
2022-08-14T18:22:49.656Z,27.77
2022-08-14T18:25:22.935Z,27.70
2022-08-14T18:27:57.243Z,27.68
2022-08-14T18:30:33.570Z,27.64
2022-08-14T18:33:23.850Z,27.59
2022-08-14T18:35:58.721Z,27.57
2022-08-14T18:38:45.871Z,27.52
2022-08-14T18:41:36.065Z,27.47
2022-08-14T18:44:10.847Z,27.41
2022-08-14T18:47:18.665Z,27.38
2022-08-14T18:50:27.170Z,27.34
2022-08-14T18:53:07.614Z,27.30
2022-08-14T18:55:55.497Z,27.25
2022-08-14T18:58:33.945Z,27.21
2022-08-14T19:01:06.867Z,27.17
2022-08-14T19:03:56.285Z,27.13
2022-08-14T19:06:56.172Z,27.09
2022-08-14T19:09:58.042Z,27.04
2022-08-14T19:13:11.546Z,27.00
2022-08-14T19:15:56.587Z,26.93
2022-08-14T19:18:32.534Z,26.88
2022-08-14T19:21:26.802Z,26.82
2022-08-14T19:24:29.919Z,26.76
2022-08-14T19:30:23.435Z,26.70
2022-08-14T19:33:03.756Z,26.61
2022-08-14T19:36:00.327Z,26.56
2022-08-14T19:38:57.207Z,26.51
2022-08-14T19:41:34.076Z,26.41
2022-08-14T19:44:12.853Z,26.41
2022-08-14T19:47:01.151Z,26.37
2022-08-14T19:50:24.379Z,26.32
2022-08-14T19:52:39.498Z,26.19
2022-08-14T19:55:20.285Z,26.22
2022-08-14T19:57:58.887Z,26.17
2022-08-14T20:00:31.759Z,26.12
2022-08-14T20:03:10.815Z,26.09
2022-08-14T20:05:45.837Z,25.98
2022-08-14T20:10:58.231Z,26.02
2022-08-14T20:12:00.830Z,25.88
2022-08-14T20:14:27.975Z,25.94
2022-08-14T20:17:06.806Z,25.92
2022-08-14T20:19:41.596Z,25.90
2022-08-14T20:22:36.588Z,25.85
2022-08-14T20:25:20.410Z,25.84
2022-08-14T20:27:58.622Z,25.80
2022-08-14T20:30:35.046Z,25.77
2022-08-14T20:33:11.760Z,25.72
2022-08-14T20:35:52.336Z,25.71
2022-08-14T20:38:32.360Z,25.68
2022-08-14T20:41:12.449Z,25.64
2022-08-14T20:44:06.577Z,25.62
2022-08-14T20:46:42.338Z,25.59
2022-08-14T20:49:19.297Z,25.55
2022-08-14T20:52:00.403Z,25.51
2022-08-14T20:54:50.505Z,25.48
2022-08-14T20:57:24.110Z,25.44
2022-08-14T20:59:57.245Z,25.41
2022-08-14T21:02:50.716Z,25.39
2022-08-14T21:05:34.073Z,25.34
2022-08-14T21:08:22.163Z,25.30
2022-08-14T21:10:58.850Z,25.27
2022-08-14T21:14:20.622Z,25.22
2022-08-14T21:16:36.758Z,25.18
2022-08-14T21:19:10.146Z,25.15
2022-08-14T21:21:54.837Z,25.12
2022-08-14T21:24:40.155Z,25.08
2022-08-14T21:27:22.008Z,25.04
2022-08-14T21:29:56.560Z,24.97
2022-08-14T21:32:47.291Z,24.92
2022-08-14T21:35:30.419Z,24.86
2022-08-14T21:38:02.886Z,24.81
2022-08-14T21:40:42.445Z,24.76
2022-08-14T21:43:21.182Z,24.70
2022-08-14T21:45:58.768Z,24.67
2022-08-14T21:48:34.021Z,24.61
2022-08-14T21:51:53.674Z,24.58
2022-08-14T21:54:01.312Z,24.53
2022-08-14T21:56:40.853Z,24.50
2022-08-14T21:59:34.126Z,24.44
2022-08-14T22:02:09.425Z,24.32
2022-08-14T22:05:03.558Z,24.38
2022-08-14T22:07:36.903Z,24.36
2022-08-14T22:10:14.220Z,24.34
2022-08-14T22:13:00.464Z,24.30
2022-08-14T22:15:35.539Z,24.28
2022-08-14T22:18:20.664Z,24.26
2022-08-14T22:20:56.622Z,24.24
2022-08-14T22:23:29.936Z,24.21
2022-08-14T22:26:05.081Z,24.18
2022-08-14T22:28:37.343Z,24.16
2022-08-14T22:31:22.230Z,24.14
2022-08-14T22:33:58.019Z,24.13
2022-08-14T22:36:50.484Z,24.10
2022-08-14T22:40:15.339Z,24.00
2022-08-14T22:42:19.382Z,24.05
2022-08-14T22:44:56.693Z,24.05
2022-08-14T22:47:40.278Z,24.03
2022-08-14T22:50:32.127Z,24.02
2022-08-14T22:53:07.532Z,24.00
2022-08-14T22:55:42.400Z,23.99
2022-08-14T22:58:16.999Z,23.96
2022-08-14T23:00:49.888Z,23.94
2022-08-14T23:03:23.472Z,23.92
2022-08-14T23:05:55.737Z,23.90
2022-08-14T23:08:58.607Z,23.87
2022-08-14T23:11:20.349Z,23.84
2022-08-14T23:13:54.861Z,23.81
2022-08-14T23:16:27.189Z,23.81
2022-08-14T23:18:59.749Z,23.77
2022-08-14T23:21:31.793Z,23.71
2022-08-14T23:24:06.403Z,23.71
2022-08-14T23:26:47.792Z,23.67
2022-08-14T23:29:24.913Z,23.65
2022-08-14T23:31:59.123Z,23.63
2022-08-14T23:34:31.645Z,23.60
2022-08-14T23:37:04.723Z,23.60
2022-08-14T23:39:39.097Z,23.59
2022-08-14T23:42:12.620Z,23.57
2022-08-14T23:44:50.349Z,23.53
2022-08-14T23:47:26.091Z,23.51
2022-08-14T23:50:04.005Z,23.49
2022-08-14T23:52:55.609Z,23.47
2022-08-14T23:55:34.970Z,23.43
2022-08-14T23:58:07.813Z,23.42
